...

 METAR AND TAF INFORMATION
METAR FOR ESNX
ADDS - METARS form results

(2129 UTC 19 May 2019)
Data provider http://aviationweather.gov/metar/data/
 
METAR text: ESNX 192120Z AUTO 19006KT 9999 -RA OVC078/// 16/04 Q1015 REDZ
Conditions at: ESNX (ARVIDSJAUR , SE) observed 2120 UTC 19 May 2019
Temperature: 16.0°C (61°F)
Dewpoint: 4.0°C (39°F) [RH = 45%]
Pressure (altimeter): 29.97 inches Hg (1015.0 mb)
Winds: from the S (190 degrees) at 7 MPH (6 knots; 3.1 m/s)
Visibility: 6 or more miles (10+ km)
Ceiling: 7800 feet AGL
Clouds: overcast cloud deck at 7800 feet AGL
Weather: -RA  (light rain)

METAR text: ESNX 192050Z AUTO 19006KT 9999 OVC084/// 17/04 Q1015
Conditions at: ESNX (ARVIDSJAUR , SE) observed 2050 UTC 19 May 2019
Temperature: 17.0°C (63°F)
Dewpoint: 4.0°C (39°F) [RH = 42%]
Pressure (altimeter): 29.97 inches Hg (1015.0 mb)
Winds: from the S (190 degrees) at 7 MPH (6 knots; 3.1 m/s)
Visibility: 6 or more miles (10+ km)
Ceiling: 8400 feet AGL
Clouds: overcast cloud deck at 8400 feet AGL
Weather: no significant weather observed at this time

Forecast for: ESNX (ARVIDSJAUR , SE)
Text: TAF ESNX 191730Z 1918/1921 10008KT CAVOK
Forecast period: 1800 to 2100 UTC 19 May 2019
Forecast type: FROM: standard forecast or significant change
Winds: from the E (100 degrees) at 9 MPH (8 knots; 4.1 m/s)
Visibility: 6 or more miles 10+ km)
Ceiling: unknown
Clouds: missing
Weather: NSW  (no significant weather)

 AIRPORT MAP

 RUNWAY INFORMATION
Runway 12 Runway length 8201 ft Runway width 148 ft
Runway elevation 1241 ft Runway displaced threshold 0 ft Runway heading 128
Runway 30 Runway length 8201 ft Runway width 148 ft
Runway elevation 1240 ft Runway displaced threshold 0 ft Runway heading 308

 AIRPORT FREQUENCIES
Type AFIS Name AFIS Frequency 123 MHZ
Type TWR Name TWR Frequency 123 MHZ

 AIRPORT NEAR NAVIGATION AIDS
Type NDB Name Arvidsjaur Frequency 381 KHZ